createdAt,value
2023-02-09T00:04:53.598Z,0.63
2023-02-09T00:14:53.649Z,0.58
2023-02-09T00:24:55.510Z,0.56
2023-02-09T00:34:55.661Z,0.55
2023-02-09T00:44:55.657Z,0.52
2023-02-09T00:54:55.601Z,0.46
2023-02-09T01:04:55.666Z,0.42
2023-02-09T01:14:55.646Z,0.40
2023-02-09T01:24:55.648Z,0.38
2023-02-09T01:34:55.661Z,0.38
2023-02-09T01:44:56.887Z,0.41
2023-02-09T01:54:56.797Z,0.44
2023-02-09T02:04:56.705Z,0.46
2023-02-09T02:14:56.817Z,0.45
2023-02-09T02:24:56.784Z,0.41
2023-02-09T02:34:56.683Z,0.34
2023-02-09T02:44:56.722Z,0.27
2023-02-09T02:54:56.689Z,0.21
2023-02-09T03:04:56.743Z,0.13
2023-02-09T03:14:56.779Z,0.07
2023-02-09T03:24:56.746Z,0.00
2023-02-09T03:34:56.740Z,-0.07
2023-02-09T03:44:56.837Z,-0.13
2023-02-09T03:54:56.754Z,-0.20
2023-02-09T04:04:56.783Z,-0.25
2023-02-09T04:14:56.870Z,-0.28
2023-02-09T04:24:56.808Z,-0.33
2023-02-09T04:34:56.783Z,-0.36
2023-02-09T04:44:56.879Z,-0.39
2023-02-09T04:54:56.806Z,-0.46
2023-02-09T05:04:56.816Z,-0.52
2023-02-09T05:14:56.921Z,-0.57
2023-02-09T05:24:56.834Z,-0.62
2023-02-09T05:34:56.957Z,-0.69
2023-02-09T05:44:56.971Z,-0.75
2023-02-09T05:54:56.904Z,-0.80
2023-02-09T06:04:56.954Z,-0.85
2023-02-09T06:14:56.948Z,-0.87
2023-02-09T06:24:56.994Z,-0.87
2023-02-09T06:34:56.936Z,-0.86
2023-02-09T06:44:58.861Z,-0.84
2023-02-09T06:54:59.094Z,-0.79
2023-02-09T07:04:59.284Z,-0.69
2023-02-09T07:14:59.116Z,-0.56
2023-02-09T07:24:59.075Z,-0.34
2023-02-09T07:34:59.055Z,-0.02
2023-02-09T07:44:59.089Z,0.37
2023-02-09T07:54:59.091Z,0.79
2023-02-09T08:04:59.175Z,1.20
2023-02-09T08:14:59.069Z,1.61
2023-02-09T08:24:59.070Z,2.02
2023-02-09T08:34:59.077Z,2.40
2023-02-09T08:44:59.150Z,2.71
2023-02-09T08:54:59.072Z,2.98
2023-02-09T09:04:59.091Z,3.31
2023-02-09T09:14:59.099Z,3.76
2023-02-09T09:24:59.253Z,4.54
2023-02-09T09:34:59.103Z,5.62
2023-02-09T09:44:59.188Z,6.59
2023-02-09T09:54:59.499Z,7.39
2023-02-09T10:04:59.223Z,7.99
2023-02-09T10:14:59.193Z,8.33
2023-02-09T10:24:59.643Z,8.45
2023-02-09T10:35:02.087Z,8.39
2023-02-09T10:45:02.228Z,8.34
2023-02-09T10:55:02.385Z,8.24
2023-02-09T11:05:02.276Z,8.08
2023-02-09T11:15:02.427Z,7.99
2023-02-09T11:25:02.402Z,7.99
2023-02-09T11:35:02.446Z,8.02
2023-02-09T11:45:02.371Z,8.03
2023-02-09T11:55:02.337Z,8.07
2023-02-09T12:05:02.288Z,8.12
2023-02-09T12:15:04.721Z,8.15
2023-02-09T12:25:05.490Z,8.19
2023-02-09T12:35:05.353Z,8.28
2023-02-09T12:45:05.359Z,8.44
2023-02-09T12:55:05.376Z,8.58
2023-02-09T13:05:05.425Z,8.61
2023-02-09T13:15:05.423Z,8.53
2023-02-09T13:25:05.440Z,8.42
2023-02-09T13:35:05.432Z,8.39
2023-02-09T13:45:05.419Z,8.41
2023-02-09T13:55:08.609Z,8.44
2023-02-09T14:05:08.506Z,8.44
2023-02-09T14:15:30.973Z,8.40
2023-02-09T14:25:31.648Z,8.32
2023-02-09T14:35:32.644Z,8.21
2023-02-09T14:45:32.497Z,8.09
2023-02-09T14:55:34.892Z,8.00
2023-02-09T15:05:34.532Z,7.95
2023-02-09T15:15:36.478Z,7.86
2023-02-09T15:25:36.579Z,7.72
2023-02-09T15:35:36.548Z,7.54
2023-02-09T15:45:54.835Z,7.32
2023-02-09T15:55:58.531Z,7.02
2023-02-09T16:05:57.677Z,6.67
2023-02-09T16:16:05.190Z,6.30
2023-02-09T16:26:01.742Z,5.92
2023-02-09T16:36:01.675Z,5.52
2023-02-09T16:46:04.003Z,5.12
2023-02-09T16:56:04.525Z,4.71
2023-02-09T17:06:04.693Z,4.30
2023-02-09T17:16:04.774Z,3.94
2023-02-09T17:26:04.762Z,3.70
2023-02-09T17:46:08.656Z,3.45
2023-02-09T17:56:08.803Z,3.25
2023-02-09T18:06:08.805Z,3.05
2023-02-09T18:16:08.737Z,3.01
2023-02-09T18:26:08.783Z,3.21
2023-02-09T18:36:08.854Z,3.51
2023-02-09T18:46:08.797Z,3.70
2023-02-09T18:56:08.857Z,3.80
2023-02-09T19:06:08.967Z,3.95
2023-02-09T19:16:08.874Z,4.16
2023-02-09T19:26:08.816Z,4.39
2023-02-09T19:36:08.931Z,4.60
2023-02-09T19:46:09.658Z,4.79
2023-02-09T19:56:10.115Z,4.95
2023-02-09T20:06:09.829Z,5.08
2023-02-09T20:16:09.916Z,5.23
2023-02-09T20:26:09.969Z,5.40
2023-02-09T20:36:09.998Z,5.54
2023-02-09T20:46:28.336Z,5.67
2023-02-09T20:56:28.925Z,5.74
2023-02-09T21:06:29.388Z,5.71
2023-02-09T21:16:30.302Z,5.61
2023-02-09T21:26:30.961Z,5.50
2023-02-09T21:36:31.550Z,5.39
2023-02-09T21:46:32.567Z,5.29
2023-02-09T21:56:32.986Z,5.23
2023-02-09T22:06:33.069Z,5.17
2023-02-09T22:16:33.102Z,5.13
2023-02-09T22:26:33.035Z,5.09
2023-02-09T22:36:33.069Z,5.04
2023-02-09T22:46:33.094Z,5.01
2023-02-09T22:56:33.053Z,5.02
2023-02-09T23:06:33.150Z,5.04
2023-02-09T23:16:33.120Z,5.08
2023-02-09T23:26:33.304Z,5.13
2023-02-09T23:36:33.440Z,5.18
2023-02-09T23:46:33.320Z,5.21
2023-02-09T23:56:35.002Z,5.24
